Time;durP1;ratioP1;P1;durP2;ratioP2;P2;SDS_P1;SDS_P2;PMS_P1;PMS_P2;Temp;Humidity;BMP_temperature;BMP_pressure;BME280_temperature;BME280_humidity;BME280_pressure;Samples;Min_cycle;Max_cycle;Signal;HPM_P1;HPM_P2
2022/12/19 00:01:07;;;;;;;0.52;0.52;;;1.50;99.90;;;;;;5026030;28;20047;-63
2022/12/19 00:03:34;;;;;;;1.58;1.48;;;1.50;99.90;;;;;;5027459;28;20048;-63
2022/12/19 00:06:02;;;;;;;15.23;3.88;;;1.50;99.90;;;;;;5025131;28;20090;-63
2022/12/19 00:08:27;;;;;;;7.22;2.83;;;1.50;99.90;;;;;;5024713;28;20049;-63
2022/12/19 00:10:56;;;;;;;2.58;2.33;;;1.50;99.90;;;;;;5027122;28;20489;-63
2022/12/19 00:13:22;;;;;;;3.92;1.73;;;1.60;99.90;;;;;;5027995;28;20041;-63
2022/12/19 00:15:47;;;;;;;2.47;2.35;;;1.60;99.90;;;;;;5025516;28;20099;-63
2022/12/19 00:18:13;;;;;;;7.65;1.55;;;1.60;99.90;;;;;;5026569;28;20513;-63
2022/12/19 00:20:38;;;;;;;4.32;2.13;;;1.70;99.90;;;;;;5026652;28;20060;-63
2022/12/19 00:23:04;;;;;;;1.38;1.33;;;1.60;99.90;;;;;;5026747;28;20037;-63
2022/12/19 00:25:29;;;;;;;5.00;4.30;;;1.70;99.90;;;;;;5025751;28;20233;-63
2022/12/19 00:27:55;;;;;;;0.38;0.38;;;1.70;99.90;;;;;;5025806;28;20099;-63
2022/12/19 00:30:21;;;;;;;0.40;0.40;;;1.70;99.90;;;;;;5026742;28;20513;-63
2022/12/19 00:32:46;;;;;;;0.88;0.88;;;1.70;99.90;;;;;;5024564;28;20380;-63
2022/12/19 00:35:12;;;;;;;1.42;1.33;;;1.70;99.90;;;;;;5026791;28;20048;-63
2022/12/19 00:37:38;;;;;;;1.05;1.05;;;1.70;99.90;;;;;;5025697;28;20045;-63
2022/12/19 00:40:05;;;;;;;0.22;0.22;;;1.70;99.90;;;;;;5024812;28;20048;-63
2022/12/19 00:42:31;;;;;;;1.02;1.02;;;1.70;99.90;;;;;;5025474;28;20083;-63
2022/12/19 00:44:56;;;;;;;1.63;1.02;;;1.70;99.90;;;;;;5027350;28;20049;-63
2022/12/19 00:47:22;;;;;;;1.83;1.70;;;1.70;99.90;;;;;;5024765;28;20045;-63
2022/12/19 00:49:47;;;;;;;0.45;0.45;;;1.80;99.90;;;;;;5026156;28;20045;-63
2022/12/19 00:52:13;;;;;;;0.38;0.38;;;1.80;99.90;;;;;;5026908;28;20128;-63
2022/12/19 00:54:38;;;;;;;1.65;1.55;;;1.80;99.90;;;;;;5024507;28;20046;-63
2022/12/19 00:57:04;;;;;;;1.27;1.20;;;1.80;99.90;;;;;;5025194;28;20095;-63
2022/12/19 00:59:30;;;;;;;0.95;0.95;;;1.80;99.90;;;;;;5027254;28;20061;-63
2022/12/19 01:01:55;;;;;;;0.60;0.60;;;1.80;99.90;;;;;;5028054;28;20046;-63
2022/12/19 01:04:21;;;;;;;1.08;1.05;;;1.80;99.90;;;;;;5030457;28;20128;-63
2022/12/19 01:06:46;;;;;;;0.20;0.20;;;1.80;99.90;;;;;;5031142;28;20045;-63
2022/12/19 01:09:12;;;;;;;3.85;2.47;;;1.80;99.90;;;;;;5029793;28;20112;-63
2022/12/19 01:14:42;;;;;;;0.50;0.50;;;1.80;99.90;;;;;;5006226;28;20164;-63
2022/12/19 01:17:07;;;;;;;0.60;0.60;;;1.80;99.90;;;;;;5008134;28;20466;-63
2022/12/19 01:19:33;;;;;;;0.68;0.68;;;1.80;99.90;;;;;;5017065;28;20041;-64
2022/12/19 01:21:59;;;;;;;5.60;3.50;;;1.80;99.90;;;;;;5025920;28;20120;-64
2022/12/19 01:24:24;;;;;;;1.45;1.30;;;1.80;99.90;;;;;;5029240;28;20517;-64
2022/12/19 01:26:50;;;;;;;0.22;0.22;;;1.80;99.90;;;;;;5030069;28;20041;-63
2022/12/19 01:29:15;;;;;;;1.60;1.17;;;1.80;99.90;;;;;;5028962;28;20068;-64
2022/12/19 01:31:41;;;;;;;3.88;3.50;;;1.80;99.90;;;;;;5029126;28;20041;-64
2022/12/19 01:34:06;;;;;;;1.15;1.15;;;1.80;99.90;;;;;;5028859;28;20030;-63
2022/12/19 01:36:33;;;;;;;0.77;0.77;;;1.90;99.90;;;;;;5027043;28;20053;-63
2022/12/19 01:38:59;;;;;;;0.90;0.90;;;1.90;99.90;;;;;;5029184;28;20041;-63
2022/12/19 01:41:24;;;;;;;2.58;2.38;;;1.90;99.90;;;;;;5027770;28;20541;-64
2022/12/19 01:43:59;;;;;;;1.10;1.10;;;1.90;99.90;;;;;;5029053;28;20038;-63
2022/12/19 01:46:27;;;;;;;1.85;1.75;;;1.90;99.90;;;;;;5027000;28;20107;-63
2022/12/19 01:48:53;;;;;;;0.50;0.50;;;1.90;99.90;;;;;;5028280;28;20128;-64
2022/12/19 01:51:22;;;;;;;2.90;2.65;;;1.90;99.90;;;;;;5028573;28;20072;-63
2022/12/19 01:53:57;;;;;;;0.30;0.30;;;1.90;99.90;;;;;;5028588;28;20446;-63
2022/12/19 01:56:28;;;;;;;1.48;1.42;;;1.90;99.90;;;;;;5027851;28;20042;-64
2022/12/19 01:58:57;;;;;;;2.05;1.95;;;2.00;99.90;;;;;;5029251;28;20116;-63
2022/12/19 02:01:23;;;;;;;0.50;0.50;;;2.00;99.90;;;;;;5027585;28;20427;-64
2022/12/19 02:03:50;;;;;;;0.52;0.52;;;2.00;99.90;;;;;;5027259;28;20383;-64
2022/12/19 02:06:16;;;;;;;0.63;0.63;;;2.00;99.90;;;;;;5027956;28;20041;-64
2022/12/19 02:08:44;;;;;;;2.30;2.15;;;2.00;99.90;;;;;;5029172;28;20521;-64
2022/12/19 02:11:10;;;;;;;0.65;0.65;;;2.00;99.90;;;;;;5027387;28;20056;-64
2022/12/19 02:13:36;;;;;;;1.15;1.15;;;2.00;99.90;;;;;;5027643;28;20241;-64
2022/12/19 02:16:18;;;;;;;0.60;0.60;;;2.00;99.90;;;;;;5028237;28;20072;-64
2022/12/19 02:19:07;;;;;;;2.88;2.65;;;2.00;99.90;;;;;;5028570;28;20072;-63
2022/12/19 02:22:15;;;;;;;5.72;1.35;;;2.00;99.90;;;;;;5026605;28;20038;-64
2022/12/19 02:25:00;;;;;;;0.60;0.60;;;2.00;99.90;;;;;;4948297;28;20047;-64
2022/12/19 02:27:50;;;;;;;1.38;1.27;;;2.00;99.90;;;;;;5024919;28;20054;-64
2022/12/19 02:30:29;;;;;;;0.30;0.30;;;2.10;99.90;;;;;;5026795;28;20456;-64
2022/12/19 02:33:16;;;;;;;2.30;2.17;;;2.10;99.90;;;;;;5026264;28;20045;-64
2022/12/19 02:35:51;;;;;;;1.27;1.17;;;2.00;99.90;;;;;;5028235;28;20124;-64
2022/12/19 02:38:33;;;;;;;1.80;1.58;;;2.00;99.90;;;;;;5028409;28;20041;-64
2022/12/19 02:41:27;;;;;;;1.17;0.90;;;2.00;99.90;;;;;;5025940;28;20056;-64
2022/12/19 02:43:55;;;;;;;6.78;3.63;;;2.10;99.90;;;;;;5026636;28;20045;-64
2022/12/19 02:46:22;;;;;;;0.50;0.50;;;2.10;99.90;;;;;;5021011;28;20054;-64
2022/12/19 02:48:49;;;;;;;6.50;0.98;;;2.00;99.90;;;;;;5008117;28;20045;-64
2022/12/19 02:51:15;;;;;;;0.40;0.40;;;2.10;99.90;;;;;;5006426;28;20029;-63
2022/12/19 02:53:41;;;;;;;1.88;1.77;;;2.10;99.90;;;;;;5007247;28;20080;-64
2022/12/19 02:56:26;;;;;;;4.22;2.45;;;2.10;99.90;;;;;;5008907;28;20096;-64
2022/12/19 02:59:10;;;;;;;0.70;0.70;;;2.10;99.90;;;;;;5007722;28;20048;-64
2022/12/19 03:01:41;;;;;;;0.77;0.75;;;2.20;99.90;;;;;;5004636;28;20462;-64
2022/12/19 03:04:16;;;;;;;0.73;0.73;;;2.20;99.90;;;;;;5008952;28;20096;-64
2022/12/19 03:06:52;;;;;;;0.57;0.57;;;2.20;99.90;;;;;;5004998;28;20397;-64
2022/12/19 03:09:17;;;;;;;2.00;1.90;;;2.20;99.90;;;;;;5007487;28;20041;-64
2022/12/19 03:11:48;;;;;;;0.60;0.57;;;2.20;99.90;;;;;;5009626;28;20046;-64
2022/12/19 03:14:18;;;;;;;0.70;0.70;;;2.20;99.90;;;;;;5008416;28;20045;-64
2022/12/19 03:16:44;;;;;;;7.47;2.25;;;2.20;99.90;;;;;;5007534;28;20041;-63
2022/12/19 03:19:12;;;;;;;1.60;1.33;;;2.20;99.90;;;;;;5008040;28;20053;-64
2022/12/19 03:21:45;;;;;;;0.20;0.20;;;2.20;99.90;;;;;;5006004;28;20096;-64
2022/12/19 03:24:12;;;;;;;0.60;0.60;;;2.20;99.90;;;;;;5006026;28;20049;-64
2022/12/19 03:26:48;;;;;;;0.32;0.32;;;2.20;99.90;;;;;;5007565;28;20076;-64
2022/12/19 03:29:20;;;;;;;0.45;0.45;;;2.30;99.90;;;;;;5007668;28;20049;-64
2022/12/19 03:31:47;;;;;;;0.10;0.10;;;2.30;99.90;;;;;;5005166;28;20046;-64
2022/12/19 03:34:22;;;;;;;0.77;0.77;;;2.30;99.90;;;;;;5008288;28;20074;-64
2022/12/19 03:36:53;;;;;;;1.25;1.23;;;2.30;99.90;;;;;;5006135;28;20077;-64
2022/12/19 03:39:20;;;;;;;0.35;0.35;;;2.30;99.90;;;;;;5008017;28;20037;-64
2022/12/19 03:44:40;;;;;;;2.83;2.15;;;2.30;99.90;;;;;;5008052;28;20476;-64
2022/12/19 03:47:28;;;;;;;1.10;1.10;;;2.40;99.90;;;;;;5009021;28;20060;-64
2022/12/19 03:49:54;;;;;;;0.43;0.43;;;2.40;99.90;;;;;;5011842;28;20053;-64
2022/12/19 03:52:25;;;;;;;13.30;5.00;;;2.40;99.90;;;;;;5027778;28;20037;-64
2022/12/19 03:55:25;;;;;;;1.85;1.75;;;2.50;99.90;;;;;;5025221;28;20048;-64
2022/12/19 03:57:56;;;;;;;1.20;1.20;;;2.40;99.90;;;;;;5026028;28;20053;-64
2022/12/19 04:00:24;;;;;;;2.53;0.82;;;2.50;99.90;;;;;;5025954;28;21241;-64
2022/12/19 04:02:52;;;;;;;0.20;0.20;;;2.40;99.90;;;;;;5025849;28;20126;-64
2022/12/19 04:05:21;;;;;;;3.50;3.20;;;2.40;99.90;;;;;;5019158;28;20361;-64
2022/12/19 04:07:49;;;;;;;6.45;3.20;;;2.50;99.90;;;;;;5025252;28;20072;-64
2022/12/19 04:10:20;;;;;;;0.93;0.93;;;2.50;99.90;;;;;;5025818;28;20406;-64
2022/12/19 04:12:59;;;;;;;0.40;0.40;;;2.50;99.90;;;;;;5026496;28;20160;-64
2022/12/19 04:15:40;;;;;;;6.60;3.67;;;2.50;99.90;;;;;;5026145;28;20044;-64
2022/12/19 04:18:08;;;;;;;0.77;0.77;;;2.50;99.90;;;;;;5026836;28;20056;-64
2022/12/19 04:20:37;;;;;;;1.73;1.63;;;2.50;99.90;;;;;;5026774;28;20107;-64
2022/12/19 04:23:21;;;;;;;0.60;0.60;;;2.50;99.90;;;;;;5025752;28;20034;-64
2022/12/19 04:25:51;;;;;;;1.10;1.10;;;2.60;99.90;;;;;;5025847;28;20087;-64
2022/12/19 04:28:29;;;;;;;0.80;0.80;;;2.60;99.90;;;;;;5028514;28;20132;-64
2022/12/19 04:30:55;;;;;;;11.60;2.05;;;2.60;99.90;;;;;;5025175;28;20389;-64
2022/12/19 04:33:21;;;;;;;1.75;1.65;;;2.60;99.90;;;;;;5025363;28;20449;-64
2022/12/19 04:35:47;;;;;;;1.02;1.02;;;2.70;99.90;;;;;;5029162;28;20057;-64
2022/12/19 04:38:12;;;;;;;0.82;0.82;;;2.60;99.90;;;;;;5031277;28;20033;-64
2022/12/19 04:40:38;;;;;;;0.75;0.73;;;2.70;99.90;;;;;;5029626;28;20481;-64
2022/12/19 04:43:04;;;;;;;1.50;1.40;;;2.70;99.90;;;;;;5030860;28;20696;-64
2022/12/19 04:45:29;;;;;;;1.83;1.73;;;2.70;99.90;;;;;;5028418;28;20052;-64
2022/12/19 04:47:55;;;;;;;0.43;0.43;;;2.70;99.90;;;;;;5031006;28;20135;-64
2022/12/19 04:50:20;;;;;;;2.78;1.85;;;2.80;99.90;;;;;;5028863;28;20049;-64
2022/12/19 04:52:46;;;;;;;2.13;1.63;;;2.80;99.90;;;;;;5030070;28;20507;-64
2022/12/19 04:55:11;;;;;;;0.85;0.85;;;2.80;99.90;;;;;;5031374;28;20115;-64
2022/12/19 04:57:37;;;;;;;1.23;1.17;;;2.80;99.90;;;;;;5028609;28;20053;-64
2022/12/19 05:00:05;;;;;;;0.70;0.70;;;2.80;99.90;;;;;;5028287;28;20045;-64
2022/12/19 05:02:31;;;;;;;6.72;1.55;;;2.90;99.90;;;;;;5031529;28;20042;-64
2022/12/19 05:04:57;;;;;;;0.68;0.68;;;2.90;99.90;;;;;;5028498;28;20385;-64
2022/12/19 05:07:22;;;;;;;0.35;0.35;;;2.90;99.90;;;;;;5029731;28;20485;-64
2022/12/19 05:09:48;;;;;;;0.65;0.65;;;3.00;99.90;;;;;;5029916;28;20061;-64
2022/12/19 05:12:13;;;;;;;1.23;1.08;;;3.00;99.90;;;;;;5028273;28;20053;-64
2022/12/19 05:14:39;;;;;;;0.30;0.30;;;3.00;99.90;;;;;;5029554;28;20038;-64
2022/12/19 05:17:04;;;;;;;0.85;0.77;;;3.00;99.90;;;;;;5030017;28;20375;-64
2022/12/19 05:19:30;;;;;;;0.60;0.60;;;3.10;99.90;;;;;;5014681;28;20091;-64
2022/12/19 05:21:56;;;;;;;1.23;1.23;;;3.10;99.90;;;;;;5028828;28;20046;-64
2022/12/19 05:24:21;;;;;;;0.50;0.50;;;3.10;99.90;;;;;;5029841;28;20405;-64
2022/12/19 05:26:48;;;;;;;0.30;0.30;;;3.20;99.90;;;;;;5029129;28;20456;-64
2022/12/19 05:29:14;;;;;;;1.40;1.20;;;3.10;99.90;;;;;;5029399;28;20037;-64
2022/12/19 05:31:40;;;;;;;0.50;0.50;;;3.20;99.90;;;;;;5029491;28;20136;-64
2022/12/19 05:34:05;;;;;;;2.00;1.30;;;3.20;99.90;;;;;;5028285;28;20116;-64
2022/12/19 05:36:31;;;;;;;2.65;2.28;;;3.20;99.90;;;;;;5028697;28;20045;-64
2022/12/19 05:38:56;;;;;;;1.77;1.67;;;3.20;99.90;;;;;;5028623;28;20568;-64
2022/12/19 05:41:22;;;;;;;0.40;0.40;;;3.20;99.90;;;;;;5030353;28;20053;-64
2022/12/19 05:43:52;;;;;;;0.20;0.20;;;3.30;99.90;;;;;;5028075;28;20056;-64
2022/12/19 05:46:19;;;;;;;2.35;2.25;;;3.30;99.90;;;;;;5022355;28;20073;-64
2022/12/19 05:48:46;;;;;;;0.40;0.40;;;3.30;99.90;;;;;;5007299;28;20492;-64
2022/12/19 05:51:12;;;;;;;0.88;0.88;;;3.30;99.90;;;;;;4991311;28;20100;-65
2022/12/19 05:53:38;;;;;;;4.03;2.13;;;3.30;99.90;;;;;;5009307;28;20038;-65
2022/12/19 05:56:06;;;;;;;0.47;0.47;;;3.30;99.90;;;;;;4989359;28;20049;-65
2022/12/19 05:58:32;;;;;;;0.85;0.85;;;3.30;99.90;;;;;;5007010;28;20197;-65
2022/12/19 06:01:12;;;;;;;0.95;0.95;;;3.40;99.90;;;;;;5009631;28;20037;-65
2022/12/19 06:03:38;;;;;;;0.77;0.77;;;3.30;99.90;;;;;;5007270;28;20042;-65
2022/12/19 06:06:06;;;;;;;0.50;0.50;;;3.40;99.90;;;;;;5010352;28;20036;-65
2022/12/19 06:08:32;;;;;;;0.73;0.73;;;3.40;99.90;;;;;;5007670;28;20042;-65
2022/12/19 06:11:02;;;;;;;0.25;0.25;;;3.40;99.90;;;;;;5008299;28;20044;-65
2022/12/19 06:13:31;;;;;;;1.65;1.55;;;3.40;99.90;;;;;;5010958;28;20037;-65
2022/12/19 06:16:05;;;;;;;0.65;0.65;;;3.50;99.90;;;;;;5010556;28;20148;-65
2022/12/19 06:18:31;;;;;;;1.48;1.38;;;3.50;99.90;;;;;;4991238;28;20050;-65
2022/12/19 06:20:58;;;;;;;1.63;1.52;;;3.50;99.90;;;;;;5002772;28;20072;-65
2022/12/19 06:23:24;;;;;;;0.47;0.47;;;3.50;99.90;;;;;;5004556;28;20588;-65
2022/12/19 06:25:49;;;;;;;3.70;1.00;;;3.50;99.90;;;;;;5007838;28;20173;-65
2022/12/19 06:28:15;;;;;;;0.13;0.13;;;3.50;99.90;;;;;;5009067;28;20125;-65
2022/12/19 06:30:40;;;;;;;0.32;0.32;;;3.60;99.90;;;;;;5007116;28;20455;-65
2022/12/19 06:33:06;;;;;;;1.17;1.13;;;3.60;99.90;;;;;;5005370;28;20056;-65
2022/12/19 06:35:31;;;;;;;0.55;0.55;;;3.60;99.90;;;;;;4992169;28;20049;-65
2022/12/19 06:37:57;;;;;;;1.35;1.05;;;3.60;99.90;;;;;;5007389;28;20717;-65
2022/12/19 06:43:07;;;;;;;0.77;0.73;;;3.70;99.90;;;;;;5007828;28;20053;-65
2022/12/19 06:45:33;;;;;;;0.20;0.20;;;3.70;99.90;;;;;;5009079;28;20038;-65
2022/12/19 06:47:58;;;;;;;0.10;0.10;;;3.70;99.90;;;;;;5027255;28;20050;-65
2022/12/19 06:50:24;;;;;;;0.55;0.55;;;3.70;99.90;;;;;;5028512;28;20044;-65
2022/12/19 06:52:50;;;;;;;0.38;0.38;;;3.80;99.90;;;;;;5024979;28;20084;-65
2022/12/19 06:55:15;;;;;;;0.47;0.47;;;3.80;99.90;;;;;;5026551;28;20061;-65
2022/12/19 06:57:44;;;;;;;0.73;0.73;;;3.90;99.90;;;;;;5027686;28;20053;-65
2022/12/19 07:00:12;;;;;;;0.50;0.50;;;3.90;99.90;;;;;;5027508;28;20107;-65
2022/12/19 07:02:41;;;;;;;0.20;0.20;;;4.00;99.90;;;;;;5029289;28;20774;-65
2022/12/19 07:05:09;;;;;;;0.15;0.15;;;4.00;99.90;;;;;;5024735;28;20079;-65
2022/12/19 07:07:35;;;;;;;0.22;0.22;;;4.10;99.90;;;;;;5021628;28;20572;-65
2022/12/19 07:10:02;;;;;;;0.17;0.17;;;4.10;99.90;;;;;;5027881;28;20140;-65
2022/12/19 07:12:27;;;;;;;0.85;0.85;;;4.20;99.90;;;;;;5025792;28;20073;-65
2022/12/19 07:14:53;;;;;;;0.10;0.10;;;4.20;99.90;;;;;;5025573;28;20065;-65
2022/12/19 07:17:20;;;;;;;0.57;0.57;;;4.30;99.90;;;;;;5024952;28;20524;-65
2022/12/19 07:19:46;;;;;;;0.10;0.10;;;4.40;99.90;;;;;;5027166;28;20077;-65
2022/12/19 07:22:12;;;;;;;0.28;0.28;;;4.40;99.90;;;;;;5023979;28;20076;-66
2022/12/19 07:24:37;;;;;;;0.10;0.10;;;4.60;99.90;;;;;;5025581;28;20064;-66
2022/12/19 07:27:03;;;;;;;0.10;0.10;;;4.70;99.90;;;;;;5030024;28;22490;-65
2022/12/19 07:29:29;;;;;;;0.10;0.10;;;4.80;99.90;;;;;;5026240;28;20413;-65
2022/12/19 07:31:54;;;;;;;0.10;0.10;;;4.80;99.90;;;;;;5027423;28;20378;-65
2022/12/19 07:34:20;;;;;;;2.08;0.47;;;4.80;99.90;;;;;;5025634;28;20128;-65
2022/12/19 07:36:46;;;;;;;0.20;0.20;;;4.90;99.90;;;;;;5027194;28;20152;-65
2022/12/19 07:39:11;;;;;;;4.18;0.85;;;4.90;99.90;;;;;;5024772;28;20037;-66
2022/12/19 07:41:37;;;;;;;0.10;0.10;;;4.90;99.90;;;;;;5024373;28;20072;-66
2022/12/19 07:44:04;;;;;;;0.20;0.20;;;4.90;99.90;;;;;;5027534;28;20056;-67
2022/12/19 07:46:29;;;;;;;0.25;0.25;;;4.90;99.90;;;;;;5026664;28;20070;-66
2022/12/19 07:48:56;;;;;;;0.10;0.10;;;5.00;99.90;;;;;;5019139;28;20041;-67
2022/12/19 07:51:21;;;;;;;0.10;0.10;;;5.00;99.90;;;;;;5026534;28;20049;-66
2022/12/19 07:53:47;;;;;;;0.10;0.10;;;5.00;99.90;;;;;;5020729;28;20052;-67
2022/12/19 07:56:14;;;;;;;0.20;0.20;;;5.00;99.90;;;;;;5025055;28;20045;-67
2022/12/19 07:58:39;;;;;;;0.30;0.30;;;5.10;99.90;;;;;;5019536;28;20389;-67
2022/12/19 08:01:05;;;;;;;0.20;0.20;;;5.10;99.90;;;;;;5027418;28;20120;-67
2022/12/19 08:03:31;;;;;;;0.10;0.10;;;5.20;99.90;;;;;;5026490;28;20531;-66
2022/12/19 08:06:01;;;;;;;0.15;0.15;;;5.20;99.90;;;;;;5027593;28;20088;-66
2022/12/19 08:08:27;;;;;;;0.43;0.38;;;5.20;99.90;;;;;;5023309;28;20576;-67
2022/12/19 08:10:53;;;;;;;0.10;0.10;;;5.30;99.90;;;;;;5040955;28;20045;-67
2022/12/19 08:13:19;;;;;;;0.75;0.75;;;5.30;99.90;;;;;;5027142;28;20041;-67
2022/12/19 08:15:44;;;;;;;0.28;0.28;;;5.40;99.90;;;;;;5025981;28;20500;-67
2022/12/19 08:18:11;;;;;;;0.20;0.20;;;5.40;99.90;;;;;;5026821;28;20132;-67
2022/12/19 08:20:36;;;;;;;0.10;0.10;;;5.40;99.90;;;;;;5028323;28;20052;-67
2022/12/19 08:23:02;;;;;;;0.52;0.52;;;5.40;99.90;;;;;;5028003;28;20504;-67
2022/12/19 08:25:27;;;;;;;0.63;0.63;;;5.50;99.90;;;;;;5027593;28;20060;-67
2022/12/19 08:27:53;;;;;;;1.33;1.23;;;5.50;99.90;;;;;;5026398;28;20052;-67
2022/12/19 08:30:19;;;;;;;0.13;0.13;;;5.60;99.90;;;;;;5028426;28;20128;-67
2022/12/19 08:32:44;;;;;;;1.02;1.02;;;5.60;99.90;;;;;;5027445;28;20042;-67
2022/12/19 08:35:10;;;;;;;0.20;0.20;;;5.60;99.90;;;;;;5026837;28;20045;-67
2022/12/19 08:37:35;;;;;;;0.20;0.20;;;5.50;99.90;;;;;;5027330;28;20045;-67
2022/12/19 08:40:01;;;;;;;0.10;0.10;;;5.70;99.90;;;;;;5026160;28;20469;-67
2022/12/19 08:42:27;;;;;;;1.20;0.75;;;5.70;99.90;;;;;;5023467;28;20069;-67
2022/12/19 08:44:52;;;;;;;0.73;0.73;;;5.70;99.90;;;;;;5027114;28;20033;-67
2022/12/19 08:47:18;;;;;;;0.10;0.10;;;5.80;99.90;;;;;;5028185;28;20523;-67
2022/12/19 08:49:43;;;;;;;0.10;0.10;;;5.80;99.90;;;;;;5027067;28;20428;-67
2022/12/19 08:52:09;;;;;;;0.75;0.75;;;5.90;99.90;;;;;;5027336;28;20041;-67
2022/12/19 08:54:35;;;;;;;3.50;1.48;;;6.00;99.90;;;;;;5026972;28;20489;-67
2022/12/19 08:57:00;;;;;;;0.15;0.15;;;6.10;99.90;;;;;;5026580;28;20060;-67
2022/12/19 08:59:26;;;;;;;0.32;0.32;;;6.10;99.90;;;;;;5024916;28;20050;-67
2022/12/19 09:01:51;;;;;;;0.22;0.22;;;6.20;99.90;;;;;;5026899;28;20132;-67
2022/12/19 09:04:17;;;;;;;0.20;0.20;;;6.30;99.90;;;;;;5021987;28;20045;-67
2022/12/19 09:06:42;;;;;;;0.32;0.32;;;6.20;99.90;;;;;;5025786;28;20041;-67
2022/12/19 09:09:08;;;;;;;5.30;0.65;;;6.20;99.90;;;;;;5026986;28;20060;-67
2022/12/19 09:11:34;;;;;;;0.45;0.45;;;6.30;99.90;;;;;;5026321;28;20038;-67
2022/12/19 09:13:59;;;;;;;0.10;0.10;;;6.30;99.90;;;;;;5025918;28;20079;-67
2022/12/19 09:16:26;;;;;;;3.88;2.05;;;6.30;99.90;;;;;;5027738;28;20111;-67
2022/12/19 09:18:55;;;;;;;0.10;0.10;;;6.40;99.90;;;;;;5025133;28;20370;-67
2022/12/19 09:21:22;;;;;;;0.52;0.52;;;6.40;99.90;;;;;;5026895;28;20036;-67
2022/12/19 09:23:51;;;;;;;0.43;0.43;;;6.30;99.90;;;;;;5028728;28;20045;-67
2022/12/19 09:26:18;;;;;;;0.35;0.35;;;6.40;99.90;;;;;;5030593;28;20091;-67
2022/12/19 09:28:45;;;;;;;0.20;0.20;;;6.40;99.90;;;;;;5029874;28;20046;-67
2022/12/19 09:31:14;;;;;;;0.22;0.22;;;6.40;99.90;;;;;;5028154;28;20046;-67
2022/12/19 09:33:39;;;;;;;0.40;0.40;;;6.50;99.90;;;;;;5030182;28;20044;-67
2022/12/19 09:36:07;;;;;;;1.10;1.10;;;6.50;99.90;;;;;;5027961;28;20130;-67
2022/12/19 09:38:33;;;;;;;0.20;0.20;;;6.50;99.90;;;;;;5023485;28;20042;-66
2022/12/19 09:41:40;;;;;;;0.10;0.10;;;6.60;99.90;;;;;;5027540;28;20482;-67
2022/12/19 09:44:43;;;;;;;1.10;1.10;;;6.60;99.90;;;;;;4948678;29;20047;-67
2022/12/19 09:47:19;;;;;;;0.10;0.10;;;6.70;99.90;;;;;;5022748;28;20130;-67
2022/12/19 09:49:47;;;;;;;0.98;0.90;;;6.70;99.90;;;;;;5029955;28;20049;-67
2022/12/19 09:52:28;;;;;;;1.02;1.02;;;6.70;99.90;;;;;;5028891;28;20037;-66
2022/12/19 09:55:08;;;;;;;0.22;0.22;;;6.70;99.90;;;;;;5025886;28;20045;-67
2022/12/19 09:57:39;;;;;;;0.82;0.82;;;6.70;99.90;;;;;;5029694;28;20080;-67
2022/12/19 10:00:14;;;;;;;0.45;0.43;;;6.80;99.90;;;;;;5029119;28;20099;-67
2022/12/19 10:03:01;;;;;;;0.30;0.30;;;6.70;99.90;;;;;;5030001;28;20161;-66
2022/12/19 10:05:35;;;;;;;0.80;0.80;;;6.70;99.90;;;;;;5029586;28;20049;-67
2022/12/19 10:08:02;;;;;;;0.30;0.30;;;6.80;99.90;;;;;;5029679;28;20073;-66
2022/12/19 10:10:56;;;;;;;0.30;0.30;;;6.80;99.90;;;;;;5024432;28;20045;-67
2022/12/19 10:13:49;;;;;;;0.10;0.10;;;6.80;99.90;;;;;;5013115;28;20053;-67
2022/12/19 10:16:37;;;;;;;0.52;0.22;;;6.80;99.90;;;;;;5029785;28;20168;-67
2022/12/19 10:19:13;;;;;;;0.30;0.30;;;6.90;99.90;;;;;;5030678;28;20053;-67
2022/12/19 10:22:03;;;;;;;0.55;0.55;;;6.90;99.90;;;;;;5029067;28;20049;-67
2022/12/19 10:24:32;;;;;;;0.10;0.10;;;6.90;99.90;;;;;;5042854;28;20057;-67
2022/12/19 10:27:12;;;;;;;1.20;1.10;;;6.90;99.90;;;;;;5029426;28;20053;-67
2022/12/19 10:30:10;;;;;;;0.32;0.32;;;6.90;99.90;;;;;;5024875;28;20167;-67
2022/12/19 10:32:50;;;;;;;0.22;0.22;;;6.90;99.90;;;;;;5019218;28;20093;-67
2022/12/19 10:35:18;;;;;;;0.10;0.10;;;6.90;99.90;;;;;;5025563;28;20045;-66
2022/12/19 10:37:52;;;;;;;0.60;0.60;;;7.00;99.90;;;;;;5025998;28;20485;-65
2022/12/19 10:40:17;;;;;;;;;;;7.00;99.90;;;;;;5027312;28;20042;-66
2022/12/19 10:43:13;;;;;;;0.60;0.60;;;7.00;99.90;;;;;;5028021;28;19928;-66
2022/12/19 10:45:52;;;;;;;0.20;0.20;;;7.10;99.90;;;;;;5028242;28;20045;-66
2022/12/19 10:48:21;;;;;;;2.05;1.15;;;7.00;99.90;;;;;;5029365;28;20085;-66
2022/12/19 10:50:47;;;;;;;0.47;0.47;;;7.00;99.90;;;;;;5029521;28;20567;-66
2022/12/19 10:53:14;;;;;;;0.10;0.10;;;7.10;99.90;;;;;;5026204;28;20041;-66
2022/12/19 10:55:46;;;;;;;0.20;0.20;;;7.10;99.90;;;;;;5024358;28;20058;-67
2022/12/19 10:58:23;;;;;;;0.20;0.20;;;7.20;99.90;;;;;;5017379;28;20489;-67
2022/12/19 11:01:08;;;;;;;0.43;0.43;;;7.20;99.90;;;;;;5028520;28;20042;-67
2022/12/19 11:03:34;;;;;;;0.10;0.10;;;7.20;99.90;;;;;;5009596;28;20088;-67
2022/12/19 11:06:02;;;;;;;0.57;0.57;;;7.30;99.90;;;;;;5018240;28;20056;-67
2022/12/19 11:08:30;;;;;;;1.05;1.05;;;7.30;99.90;;;;;;5024974;28;20516;-67
2022/12/19 11:11:11;;;;;;;0.50;0.50;;;7.30;99.90;;;;;;5027472;28;20397;-67
2022/12/19 11:13:36;;;;;;;0.05;0.05;;;7.30;99.90;;;;;;5027516;28;20532;-67
2022/12/19 11:16:06;;;;;;;0.10;0.10;;;7.30;99.90;;;;;;5029076;28;20061;-67
2022/12/19 11:18:40;;;;;;;0.10;0.10;;;7.30;99.90;;;;;;5025018;28;20397;-67
2022/12/19 11:21:13;;;;;;;1.08;1.08;;;7.30;99.90;;;;;;5022697;28;20494;-67
2022/12/19 11:24:11;;;;;;;0.60;0.60;;;7.40;99.90;;;;;;5014958;28;20045;-65
2022/12/19 11:26:42;;;;;;;1.80;1.35;;;7.40;99.90;;;;;;5026755;28;21245;-65
2022/12/19 11:29:28;;;;;;;0.63;0.63;;;7.40;99.90;;;;;;5026596;28;20053;-64
2022/12/19 11:32:01;;;;;;;8.07;2.58;;;7.50;99.90;;;;;;5028939;28;20681;-65
2022/12/19 11:34:29;;;;;;;0.10;0.10;;;7.50;99.90;;;;;;5042508;28;20053;-64
2022/12/19 11:37:20;;;;;;;0.10;0.10;;;7.50;99.90;;;;;;5028090;28;20773;-64
2022/12/19 11:39:58;;;;;;;0.10;0.10;;;7.60;99.90;;;;;;5024403;28;20042;-64
2022/12/19 11:42:50;;;;;;;0.13;0.13;;;7.60;99.90;;;;;;5026714;28;20049;-65
2022/12/19 11:45:42;;;;;;;0.47;0.47;;;7.70;99.90;;;;;;5027174;28;20041;-64
2022/12/19 11:48:33;;;;;;;0.47;0.47;;;7.80;99.90;;;;;;5026075;28;20049;-64
2022/12/19 11:51:06;;;;;;;0.80;0.80;;;7.80;99.90;;;;;;5023019;28;20080;-64
2022/12/19 11:53:43;;;;;;;0.10;0.10;;;7.80;99.90;;;;;;5026817;28;20056;-64
2022/12/19 11:56:16;;;;;;;0.10;0.10;;;7.80;99.90;;;;;;5023813;28;20045;-64
2022/12/19 11:58:48;;;;;;;0.10;0.10;;;7.80;99.90;;;;;;5028311;28;20132;-64
2022/12/19 12:02:05;;;;;;;0.98;0.98;;;7.80;99.90;;;;;;5027235;28;20152;-64
2022/12/19 12:04:50;;;;;;;0.50;0.50;;;7.70;99.90;;;;;;4996438;28;20050;-64
2022/12/19 12:07:15;;;;;;;0.82;0.80;;;7.80;99.90;;;;;;5008978;28;20445;-64
2022/12/19 12:09:58;;;;;;;0.10;0.10;;;7.80;99.90;;;;;;5019595;28;20042;-64
2022/12/19 12:12:28;;;;;;;3.00;0.63;;;7.80;99.90;;;;;;5023827;28;20053;-64
2022/12/19 12:15:22;;;;;;;0.75;0.75;;;7.80;99.90;;;;;;5014427;28;20042;-64
2022/12/19 12:17:53;;;;;;;0.63;0.63;;;7.80;99.90;;;;;;5026612;28;20065;-64
2022/12/19 12:20:32;;;;;;;0.20;0.20;;;7.80;99.90;;;;;;5028658;28;20049;-64
2022/12/19 12:23:35;;;;;;;1.67;0.90;;;7.80;99.90;;;;;;5025971;28;20056;-63
2022/12/19 12:26:23;;;;;;;0.10;0.10;;;7.80;99.90;;;;;;5027157;28;20524;-63
2022/12/19 12:29:04;;;;;;;0.10;0.10;;;7.80;99.90;;;;;;5018983;28;20615;-63
2022/12/19 12:32:05;;;;;;;0.10;0.10;;;7.80;99.90;;;;;;5022479;28;20528;-63
2022/12/19 12:34:43;;;;;;;0.20;0.20;;;7.80;99.90;;;;;;4990113;28;20053;-64
2022/12/19 12:37:17;;;;;;;0.68;0.68;;;7.80;99.90;;;;;;5024126;28;20141;-64
2022/12/19 12:40:12;;;;;;;0.65;0.65;;;7.80;99.90;;;;;;5025131;28;20049;-64
2022/12/19 12:43:17;;;;;;;0.10;0.10;;;7.80;99.90;;;;;;5026866;28;20482;-63
2022/12/19 12:45:44;;;;;;;0.20;0.20;;;7.80;99.90;;;;;;5021832;28;20050;-63
2022/12/19 12:48:36;;;;;;;0.60;0.60;;;7.80;99.90;;;;;;5023809;28;20049;-63
2022/12/19 12:51:04;;;;;;;1.42;1.33;;;7.80;99.90;;;;;;5025154;28;20064;-63
2022/12/19 12:53:35;;;;;;;1.38;0.75;;;7.80;99.90;;;;;;5025014;28;20062;-67
2022/12/19 12:56:03;;;;;;;0.30;0.30;;;7.80;99.90;;;;;;5025282;28;20037;-66
2022/12/19 12:58:47;;;;;;;0.40;0.40;;;7.80;99.90;;;;;;5028428;28;20060;-66
2022/12/19 13:01:27;;;;;;;0.60;0.60;;;7.80;99.90;;;;;;5031361;28;20052;-66
2022/12/19 13:04:04;;;;;;;0.25;0.25;;;7.70;99.90;;;;;;5029697;28;20054;-66
2022/12/19 13:06:34;;;;;;;0.90;0.90;;;7.70;99.90;;;;;;5028972;28;20041;-67
2022/12/19 13:09:15;;;;;;;2.83;1.75;;;7.70;99.90;;;;;;5029840;28;20041;-68
2022/12/19 13:15:26;;;;;;;0.68;0.68;;;7.80;99.90;;;;;;5027527;28;20206;-68
2022/12/19 13:17:51;;;;;;;0.10;0.10;;;7.80;99.90;;;;;;5030108;28;20045;-68
2022/12/19 13:20:17;;;;;;;2.35;1.25;;;7.80;99.90;;;;;;5028390;28;20049;-68
2022/12/19 13:22:57;;;;;;;0.98;0.90;;;7.80;99.90;;;;;;5028801;28;20132;-69
2022/12/19 13:25:46;;;;;;;2.20;1.38;;;7.90;99.90;;;;;;5028117;28;20106;-69
2022/12/19 13:28:21;;;;;;;1.45;0.52;;;7.90;99.90;;;;;;5027988;28;20050;-69
2022/12/19 13:31:04;;;;;;;0.10;0.10;;;7.90;99.90;;;;;;5027006;28;20044;-69